Time;durP1;ratioP1;P1;durP2;ratioP2;P2;SDS_P1;SDS_P2;PMS_P1;PMS_P2;Temp;Humidity;BMP_temperature;BMP_pressure;BME280_temperature;BME280_humidity;BME280_pressure;Samples;Min_cycle;Max_cycle;Signal;HPM_P1;HPM_P2
2021/09/07 00:01:11;;;;;;;1027.95;924.25;;;;;;;;;;5017388;28;20477;-74
2021/09/07 00:03:37;;;;;;;1032.35;928.15;;;;;;;;;;5000315;28;20041;-74
2021/09/07 00:06:04;;;;;;;1032.15;928.25;;;;;;;;;;5025802;28;20052;-74
2021/09/07 00:08:30;;;;;;;1042.80;938.10;;;;;;;;;;5026386;28;20026;-74
2021/09/07 00:10:56;;;;;;;1035.53;931.53;;;;;;;;;;5026956;28;20075;-73
2021/09/07 00:13:21;;;;;;;1048.95;944.20;;;;;;;;;;5016050;28;20040;-73
2021/09/07 00:15:47;;;;;;;1047.95;943.10;;;;;;;;;;5027105;28;20328;-73
2021/09/07 00:18:13;;;;;;;1055.88;950.80;;;;;;;;;;5013356;28;20397;-73
2021/09/07 00:20:39;;;;;;;1047.40;942.55;;;;;;;;;;5009271;28;20144;-73
2021/09/07 00:23:05;;;;;;;1048.00;943.35;;;;;;;;;;5004839;28;20488;-73
2021/09/07 00:25:31;;;;;;;1045.93;941.42;;;;;;;;;;5015685;28;20030;-73
2021/09/07 00:27:57;;;;;;;1049.68;944.80;;;;;;;;;;5025713;28;20408;-73
2021/09/07 00:30:23;;;;;;;1050.72;946.13;;;;;;;;;;5009361;28;20029;-73
2021/09/07 00:32:49;;;;;;;1049.93;945.38;;;;;;;;;;5027383;28;20037;-73
2021/09/07 00:35:15;;;;;;;1049.45;945.00;;;;;;;;;;5026384;28;20541;-74
2021/09/07 00:37:42;;;;;;;1053.82;949.20;;;;;;;;;;5016605;28;20120;-73
2021/09/07 00:40:09;;;;;;;1051.65;947.15;;;;;;;;;;5009084;28;20029;-73
2021/09/07 00:42:36;;;;;;;1045.63;941.47;;;;;;;;;;5026049;28;20049;-73
2021/09/07 00:45:06;;;;;;;1050.07;945.67;;;;;;;;;;5010534;28;20147;-74
2021/09/07 00:47:32;;;;;;;1040.80;936.97;;;;;;;;;;5026921;28;20401;-73
2021/09/07 00:49:58;;;;;;;1046.60;942.30;;;;;;;;;;5005243;28;20035;-72
2021/09/07 00:52:25;;;;;;;1055.47;950.83;;;;;;;;;;5026608;28;20520;-73
2021/09/07 00:54:51;;;;;;;1047.53;943.22;;;;;;;;;;5007729;28;20060;-74
2021/09/07 00:57:17;;;;;;;1041.45;937.67;;;;;;;;;;5027380;28;20060;-75
2021/09/07 00:59:44;;;;;;;1049.75;945.58;;;;;;;;;;5024970;28;20434;-73
2021/09/07 01:02:12;;;;;;;1048.70;944.63;;;;;;;;;;5027127;28;20029;-73
2021/09/07 01:04:38;;;;;;;1049.45;945.10;;;;;;;;;;5018029;28;20041;-74
2021/09/07 01:07:05;;;;;;;1041.22;937.17;;;;;;;;;;5018930;28;20040;-74
2021/09/07 01:09:31;;;;;;;1027.70;924.53;;;;;;;;;;5018932;28;20393;-74
2021/09/07 01:11:57;;;;;;;1036.97;933.10;;;;;;;;;;5026176;28;20017;-74
2021/09/07 01:14:29;;;;;;;1042.15;937.95;;;;;;;;;;5025201;28;20606;-74
2021/09/07 01:16:56;;;;;;;1035.18;931.28;;;;;;;;;;5016604;28;20140;-73
2021/09/07 01:19:23;;;;;;;1026.82;923.45;;;;;;;;;;5010499;28;20037;-73
2021/09/07 01:21:49;;;;;;;1026.75;923.28;;;;;;;;;;5017269;28;20437;-73
2021/09/07 01:24:19;;;;;;;1036.55;932.63;;;;;;;;;;5025098;28;20063;-73
2021/09/07 01:26:45;;;;;;;1025.82;922.35;;;;;;;;;;5025046;28;20126;-74
2021/09/07 01:29:11;;;;;;;1023.15;919.80;;;;;;;;;;5017338;28;20057;-74
2021/09/07 01:31:37;;;;;;;1014.90;912.08;;;;;;;;;;5025928;28;20029;-73
2021/09/07 01:34:03;;;;;;;1016.78;913.47;;;;;;;;;;5008860;28;20124;-73
2021/09/07 01:36:29;;;;;;;1014.88;912.08;;;;;;;;;;5026031;28;20679;-73
2021/09/07 01:38:55;;;;;;;1019.28;916.10;;;;;;;;;;5027248;28;20037;-73
2021/09/07 01:41:21;;;;;;;1015.40;912.42;;;;;;;;;;5024495;28;20043;-73
2021/09/07 01:43:50;;;;;;;1012.97;910.10;;;;;;;;;;5013773;28;20331;-73
2021/09/07 01:46:17;;;;;;;1012.40;909.53;;;;;;;;;;5024649;28;20026;-73
2021/09/07 01:48:43;;;;;;;1025.18;921.47;;;;;;;;;;5026415;28;20442;-73
2021/09/07 01:51:09;;;;;;;1019.75;916.35;;;;;;;;;;5005546;28;20048;-73
2021/09/07 01:53:35;;;;;;;1012.15;909.25;;;;;;;;;;5025500;28;20022;-73
2021/09/07 01:56:01;;;;;;;1014.53;911.42;;;;;;;;;;5025298;28;20048;-73
2021/09/07 01:58:27;;;;;;;1013.22;910.22;;;;;;;;;;5014310;28;20022;-73
2021/09/07 02:00:53;;;;;;;1015.55;912.45;;;;;;;;;;5017312;28;20477;-73
2021/09/07 02:03:19;;;;;;;1021.55;917.90;;;;;;;;;;5004202;28;20366;-73
2021/09/07 02:05:45;;;;;;;1012.50;909.22;;;;;;;;;;5025266;28;20041;-73
2021/09/07 02:08:11;;;;;;;1012.83;909.88;;;;;;;;;;5026035;28;20034;-73
2021/09/07 02:10:37;;;;;;;1010.10;907.20;;;;;;;;;;5024944;28;20038;-73
2021/09/07 02:13:03;;;;;;;1015.35;912.20;;;;;;;;;;5025954;28;20104;-73
2021/09/07 02:15:29;;;;;;;1017.22;913.78;;;;;;;;;;5008246;28;20033;-73
2021/09/07 02:17:55;;;;;;;1010.80;907.63;;;;;;;;;;5024897;28;20024;-73
2021/09/07 02:20:21;;;;;;;1006.58;903.78;;;;;;;;;;5001988;28;20168;-74
2021/09/07 02:22:47;;;;;;;1007.53;904.58;;;;;;;;;;5008712;28;20034;-73
2021/09/07 02:25:13;;;;;;;1009.47;905.97;;;;;;;;;;5016009;28;20052;-73
2021/09/07 02:27:39;;;;;;;1012.08;908.97;;;;;;;;;;5014434;28;20271;-73
2021/09/07 02:30:07;;;;;;;1009.35;904.17;;;;;;;;;;5019048;28;20021;-73
2021/09/07 02:32:33;;;;;;;1013.72;910.42;;;;;;;;;;5015053;28;20049;-73
2021/09/07 02:34:59;;;;;;;1011.08;908.10;;;;;;;;;;5014719;28;20025;-73
2021/09/07 02:37:25;;;;;;;1012.67;909.60;;;;;;;;;;5027315;28;20020;-72
2021/09/07 02:39:51;;;;;;;1015.90;912.85;;;;;;;;;;5025281;28;20404;-74
2021/09/07 02:42:17;;;;;;;1000.72;898.33;;;;;;;;;;5028776;28;20528;-74
2021/09/07 02:44:43;;;;;;;1002.70;900.20;;;;;;;;;;5022757;28;20258;-73
2021/09/07 02:47:09;;;;;;;1004.78;902.00;;;;;;;;;;5023559;28;20040;-73
2021/09/07 02:49:35;;;;;;;997.40;894.92;;;;;;;;;;5029611;28;20046;-73
2021/09/07 02:52:01;;;;;;;992.65;890.55;;;;;;;;;;5026827;28;20025;-73
2021/09/07 02:54:27;;;;;;;994.60;892.08;;;;;;;;;;5015947;28;20034;-73
2021/09/07 02:56:53;;;;;;;989.17;887.08;;;;;;;;;;5028966;28;20063;-73
2021/09/07 02:59:19;;;;;;;1007.65;904.42;;;;;;;;;;5027317;28;20030;-73
2021/09/07 03:01:44;;;;;;;990.13;888.05;;;;;;;;;;5012136;28;20072;-73
2021/09/07 03:04:10;;;;;;;983.40;881.35;;;;;;;;;;5019671;28;20394;-73
2021/09/07 03:06:36;;;;;;;985.80;883.53;;;;;;;;;;5017038;28;20071;-73
2021/09/07 03:09:03;;;;;;;980.25;878.25;;;;;;;;;;5025795;28;20432;-74
2021/09/07 03:11:29;;;;;;;982.25;880.00;;;;;;;;;;5028387;28;20462;-73
2021/09/07 03:13:55;;;;;;;989.85;887.15;;;;;;;;;;5014658;28;20017;-73
2021/09/07 03:16:21;;;;;;;976.33;874.80;;;;;;;;;;5020061;28;20036;-73
2021/09/07 03:18:47;;;;;;;984.97;882.83;;;;;;;;;;5028010;28;20108;-73
2021/09/07 03:21:13;;;;;;;973.05;871.22;;;;;;;;;;5028278;28;20145;-73
2021/09/07 03:23:38;;;;;;;971.42;869.80;;;;;;;;;;5014234;28;20124;-73
2021/09/07 03:26:04;;;;;;;971.75;870.25;;;;;;;;;;5019079;28;20462;-73
2021/09/07 03:28:30;;;;;;;987.78;885.28;;;;;;;;;;5025119;28;20132;-73
2021/09/07 03:30:56;;;;;;;978.58;876.10;;;;;;;;;;5018795;28;20083;-73
2021/09/07 03:33:22;;;;;;;982.53;880.25;;;;;;;;;;5028391;28;20037;-73
2021/09/07 03:35:48;;;;;;;981.95;879.67;;;;;;;;;;5028686;28;20029;-73
2021/09/07 03:38:14;;;;;;;973.70;871.95;;;;;;;;;;5001162;28;20545;-73
2021/09/07 03:40:40;;;;;;;971.33;869.58;;;;;;;;;;5027841;28;20040;-74
2021/09/07 03:43:06;;;;;;;984.35;881.90;;;;;;;;;;5007644;28;20040;-73
2021/09/07 03:45:32;;;;;;;978.97;876.63;;;;;;;;;;5009988;28;20029;-74
2021/09/07 03:47:58;;;;;;;978.60;876.40;;;;;;;;;;5011538;28;20036;-73
2021/09/07 03:50:24;;;;;;;973.85;871.58;;;;;;;;;;5016311;28;20034;-73
2021/09/07 03:52:50;;;;;;;980.78;878.28;;;;;;;;;;5009141;28;20035;-74
2021/09/07 03:55:16;;;;;;;979.45;876.78;;;;;;;;;;5028083;28;20053;-73
2021/09/07 03:57:42;;;;;;;983.90;881.03;;;;;;;;;;5025200;28;20244;-73
2021/09/07 04:00:08;;;;;;;973.85;871.88;;;;;;;;;;5027892;28;20133;-74
2021/09/07 04:02:34;;;;;;;972.97;870.83;;;;;;;;;;5027161;28;20021;-73
2021/09/07 04:05:00;;;;;;;975.03;872.65;;;;;;;;;;5038076;28;20380;-73
2021/09/07 04:07:26;;;;;;;968.05;866.30;;;;;;;;;;5013650;28;20053;-73
2021/09/07 04:09:52;;;;;;;983.88;881.15;;;;;;;;;;5027551;28;20432;-73
2021/09/07 04:12:18;;;;;;;975.30;872.90;;;;;;;;;;5019619;28;20046;-73
2021/09/07 04:14:44;;;;;;;979.72;876.85;;;;;;;;;;5026207;28;20100;-74
2021/09/07 04:17:10;;;;;;;980.08;877.17;;;;;;;;;;5024746;28;20793;-73
2021/09/07 04:19:36;;;;;;;972.67;870.28;;;;;;;;;;5009814;28;20025;-73
2021/09/07 04:22:02;;;;;;;977.33;874.45;;;;;;;;;;5017322;28;20032;-73
2021/09/07 04:24:28;;;;;;;983.47;880.33;;;;;;;;;;5024153;28;20025;-74
2021/09/07 04:26:54;;;;;;;982.40;879.47;;;;;;;;;;5027871;28;20033;-74
2021/09/07 04:29:21;;;;;;;979.35;876.38;;;;;;;;;;5003704;28;20055;-73
2021/09/07 04:31:47;;;;;;;970.97;868.63;;;;;;;;;;5011025;28;20087;-73
2021/09/07 04:34:13;;;;;;;977.63;874.55;;;;;;;;;;5026227;28;20026;-74
2021/09/07 04:36:39;;;;;;;965.70;863.65;;;;;;;;;;5027736;28;20018;-73
2021/09/07 04:39:05;;;;;;;966.30;864.40;;;;;;;;;;5003960;28;20040;-74
2021/09/07 04:41:31;;;;;;;972.63;870.13;;;;;;;;;;5028207;28;20029;-74
2021/09/07 04:43:58;;;;;;;959.90;857.92;;;;;;;;;;5024294;28;20054;-73
2021/09/07 04:46:24;;;;;;;958.53;856.95;;;;;;;;;;5006941;28;20057;-74
2021/09/07 04:48:54;;;;;;;962.30;860.17;;;;;;;;;;5011097;28;20385;-74
2021/09/07 04:51:20;;;;;;;969.53;866.67;;;;;;;;;;5011418;28;20024;-73
2021/09/07 04:53:46;;;;;;;963.50;861.30;;;;;;;;;;5027352;28;20083;-73
2021/09/07 04:56:12;;;;;;;954.95;853.45;;;;;;;;;;5017175;28;20034;-73
2021/09/07 04:58:38;;;;;;;963.20;861.05;;;;;;;;;;5009083;28;20040;-74
2021/09/07 05:01:05;;;;;;;965.20;863.00;;;;;;;;;;5026360;28;20101;-73
2021/09/07 05:03:31;;;;;;;965.17;862.85;;;;;;;;;;5025791;28;20017;-73
2021/09/07 05:05:57;;;;;;;964.85;862.58;;;;;;;;;;5011320;28;20029;-73
2021/09/07 05:08:23;;;;;;;954.50;852.85;;;;;;;;;;5017500;28;20025;-74
2021/09/07 05:10:49;;;;;;;954.95;852.95;;;;;;;;;;5026142;28;20040;-73
2021/09/07 05:13:15;;;;;;;966.17;863.83;;;;;;;;;;5014546;28;20021;-73
2021/09/07 05:15:41;;;;;;;964.67;862.28;;;;;;;;;;5009610;28;20498;-74
2021/09/07 05:18:07;;;;;;;961.10;859.00;;;;;;;;;;5009423;28;20025;-73
2021/09/07 05:20:33;;;;;;;967.10;864.75;;;;;;;;;;5017446;28;20064;-74
2021/09/07 05:22:59;;;;;;;970.20;867.35;;;;;;;;;;5027077;28;20048;-73
2021/09/07 05:25:26;;;;;;;977.33;874.22;;;;;;;;;;5018256;28;20127;-73
2021/09/07 05:27:52;;;;;;;965.38;862.97;;;;;;;;;;5009106;28;20036;-74
2021/09/07 05:30:18;;;;;;;973.67;870.67;;;;;;;;;;5008055;28;20029;-73
2021/09/07 05:32:44;;;;;;;968.30;865.67;;;;;;;;;;5017999;28;20481;-73
2021/09/07 05:35:11;;;;;;;960.53;858.17;;;;;;;;;;5023458;28;20026;-73
2021/09/07 05:37:40;;;;;;;963.90;861.22;;;;;;;;;;5014196;28;20032;-74
2021/09/07 05:40:10;;;;;;;966.42;863.53;;;;;;;;;;5010603;28;20025;-73
2021/09/07 05:42:38;;;;;;;960.97;858.28;;;;;;;;;;5022943;28;20081;-74
2021/09/07 05:45:04;;;;;;;965.42;862.92;;;;;;;;;;5008320;28;20030;-73
2021/09/07 05:47:30;;;;;;;958.95;856.78;;;;;;;;;;5016787;28;20021;-74
2021/09/07 05:49:57;;;;;;;973.72;870.88;;;;;;;;;;5018290;28;20037;-73
2021/09/07 05:52:23;;;;;;;983.85;880.40;;;;;;;;;;5026388;28;20021;-74
2021/09/07 05:54:48;;;;;;;986.75;883.65;;;;;;;;;;5024069;28;20105;-74
2021/09/07 05:57:15;;;;;;;984.97;882.22;;;;;;;;;;5013364;28;20242;-73
2021/09/07 05:59:41;;;;;;;994.35;891.22;;;;;;;;;;5021776;28;20496;-73
2021/09/07 06:02:07;;;;;;;990.35;887.75;;;;;;;;;;5009666;28;20057;-73
2021/09/07 06:04:32;;;;;;;997.08;894.00;;;;;;;;;;5023592;28;20657;-73
2021/09/07 06:06:58;;;;;;;998.92;895.88;;;;;;;;;;5029308;28;20022;-74
2021/09/07 06:09:24;;;;;;;1007.15;903.40;;;;;;;;;;5028174;28;20025;-73
2021/09/07 06:11:50;;;;;;;1004.70;901.50;;;;;;;;;;5030064;28;20057;-73
2021/09/07 06:14:16;;;;;;;1007.13;903.90;;;;;;;;;;5029846;28;20079;-73
2021/09/07 06:16:42;;;;;;;1006.15;902.95;;;;;;;;;;5028923;28;20060;-73
2021/09/07 06:19:08;;;;;;;1002.85;899.70;;;;;;;;;;5028974;28;20524;-74
2021/09/07 06:21:34;;;;;;;1010.75;907.17;;;;;;;;;;5028681;28;20487;-74
2021/09/07 06:24:00;;;;;;;1017.38;913.85;;;;;;;;;;5013482;28;20037;-74
2021/09/07 06:26:26;;;;;;;1013.83;910.80;;;;;;;;;;5021188;28;20076;-73
2021/09/07 06:28:52;;;;;;;1025.70;921.97;;;;;;;;;;5026793;28;20454;-73
2021/09/07 06:31:18;;;;;;;1030.05;926.13;;;;;;;;;;5009026;28;20027;-74
2021/09/07 06:33:44;;;;;;;1025.63;921.95;;;;;;;;;;5028686;28;20080;-74
2021/09/07 06:36:10;;;;;;;1029.22;925.60;;;;;;;;;;5009176;28;20025;-73
2021/09/07 06:38:36;;;;;;;1034.68;930.70;;;;;;;;;;5011802;28;20112;-73
2021/09/07 06:41:06;;;;;;;1038.47;934.25;;;;;;;;;;5011868;28;20034;-74
2021/09/07 06:43:32;;;;;;;1039.10;934.78;;;;;;;;;;5011828;28;20069;-74
2021/09/07 06:45:58;;;;;;;1030.88;927.38;;;;;;;;;;5013913;28;20065;-74
2021/09/07 06:48:24;;;;;;;1043.80;939.67;;;;;;;;;;5029019;28;20021;-73
2021/09/07 06:50:50;;;;;;;1047.43;943.30;;;;;;;;;;5028387;28;20037;-75
2021/09/07 06:53:16;;;;;;;1058.78;953.97;;;;;;;;;;5019676;28;20025;-73
2021/09/07 06:55:42;;;;;;;1064.07;959.15;;;;;;;;;;5017002;28;20108;-73
2021/09/07 06:58:08;;;;;;;1062.50;957.60;;;;;;;;;;5013296;28;20556;-73
2021/09/07 07:00:34;;;;;;;1063.80;958.92;;;;;;;;;;5012496;28;20034;-74
2021/09/07 07:03:00;;;;;;;1075.93;970.55;;;;;;;;;;5019569;28;20025;-73
2021/09/07 07:05:26;;;;;;;1073.97;968.65;;;;;;;;;;5031191;28;20355;-74
2021/09/07 07:07:53;;;;;;;1087.68;981.58;;;;;;;;;;5030460;28;20030;-74
2021/09/07 07:10:19;;;;;;;1094.45;987.78;;;;;;;;;;5031002;28;20719;-75
2021/09/07 07:12:47;;;;;;;1089.20;983.05;;;;;;;;;;5020116;28;20512;-74
2021/09/07 07:15:13;;;;;;;1094.05;987.88;;;;;;;;;;5022850;28;20638;-74
2021/09/07 07:17:39;;;;;;;1089.78;983.90;;;;;;;;;;5014806;28;20033;-74
2021/09/07 07:20:05;;;;;;;1096.18;989.90;;;;;;;;;;5009149;28;20418;-73
2021/09/07 07:22:31;;;;;;;1091.00;985.28;;;;;;;;;;5022571;28;20037;-73
2021/09/07 07:24:57;;;;;;;1095.50;989.38;;;;;;;;;;5016038;28;20062;-73
2021/09/07 07:27:23;;;;;;;1103.50;996.08;;;;;;;;;;5005054;28;20033;-74
2021/09/07 07:29:49;;;;;;;1105.32;996.72;;;;;;;;;;5014104;28;20304;-74
2021/09/07 07:32:16;;;;;;;1100.38;993.75;;;;;;;;;;5023927;28;20030;-74
2021/09/07 07:34:42;;;;;;;1108.95;998.85;;;;;;;;;;5027721;28;20025;-73
2021/09/07 07:37:08;;;;;;;1111.97;999.45;;;;;;;;;;5010449;28;20478;-74
2021/09/07 07:39:34;;;;;;;1111.18;999.20;;;;;;;;;;5014839;28;20033;-74
2021/09/07 07:42:00;;;;;;;1119.88;999.90;;;;;;;;;;5005928;28;20044;-74
2021/09/07 07:44:26;;;;;;;1126.47;999.90;;;;;;;;;;5024135;28;20393;-74
2021/09/07 07:46:52;;;;;;;1120.53;999.90;;;;;;;;;;5006573;28;20038;-74
2021/09/07 07:49:18;;;;;;;1126.38;999.90;;;;;;;;;;5008412;28;20033;-74
2021/09/07 07:51:44;;;;;;;1129.78;999.90;;;;;;;;;;5016693;28;20029;-74
2021/09/07 07:54:12;;;;;;;1130.35;999.90;;;;;;;;;;5023044;28;20029;-74
2021/09/07 07:56:38;;;;;;;1140.95;999.90;;;;;;;;;;5022704;28;20021;-74
2021/09/07 07:59:04;;;;;;;1148.97;999.90;;;;;;;;;;5002334;28;20072;-73
2021/09/07 08:01:30;;;;;;;1156.18;999.90;;;;;;;;;;5007260;28;20033;-75
2021/09/07 08:03:57;;;;;;;1153.82;999.90;;;;;;;;;;5027909;28;20060;-74
2021/09/07 08:06:23;;;;;;;1158.63;999.90;;;;;;;;;;5011102;28;20030;-75
2021/09/07 08:08:50;;;;;;;1161.43;999.90;;;;;;;;;;5011817;28;20040;-74
2021/09/07 08:11:16;;;;;;;1173.78;999.90;;;;;;;;;;5007767;28;20030;-73
2021/09/07 08:13:42;;;;;;;1169.78;999.90;;;;;;;;;;5017832;28;20034;-74
2021/09/07 08:16:08;;;;;;;1167.25;999.90;;;;;;;;;;5016500;28;20021;-75
2021/09/07 08:18:34;;;;;;;1163.05;999.90;;;;;;;;;;5020887;28;20017;-74
2021/09/07 08:21:00;;;;;;;1174.28;999.90;;;;;;;;;;5004385;28;20490;-74
2021/09/07 08:23:26;;;;;;;1175.47;999.90;;;;;;;;;;5000833;28;20065;-74
2021/09/07 08:25:53;;;;;;;1185.90;999.90;;;;;;;;;;5021062;28;20033;-74
2021/09/07 08:28:20;;;;;;;1184.43;999.90;;;;;;;;;;5028926;28;20444;-74
2021/09/07 08:30:46;;;;;;;1187.45;999.90;;;;;;;;;;5017262;28;20568;-74
2021/09/07 08:33:13;;;;;;;1192.88;999.90;;;;;;;;;;5017882;28;20053;-74
2021/09/07 08:35:39;;;;;;;1193.93;999.90;;;;;;;;;;5011621;28;20032;-74
2021/09/07 08:38:05;;;;;;;1205.28;999.90;;;;;;;;;;5016579;28;20106;-74
2021/09/07 08:40:31;;;;;;;1205.50;999.90;;;;;;;;;;5026434;28;20025;-75
2021/09/07 08:42:58;;;;;;;1213.25;999.90;;;;;;;;;;5023906;28;20467;-75
2021/09/07 08:45:24;;;;;;;1209.47;999.90;;;;;;;;;;5008212;28;20033;-73
2021/09/07 08:47:50;;;;;;;1214.63;999.90;;;;;;;;;;5003763;28;20131;-73
2021/09/07 08:50:16;;;;;;;1214.53;999.90;;;;;;;;;;5008692;28;20030;-73
2021/09/07 08:52:43;;;;;;;1221.63;999.90;;;;;;;;;;5005945;28;20402;-74
2021/09/07 08:55:09;;;;;;;1243.38;999.90;;;;;;;;;;5013375;28;20029;-72
2021/09/07 08:57:35;;;;;;;1243.30;999.90;;;;;;;;;;5008914;28;20045;-73
2021/09/07 09:00:02;;;;;;;1235.25;999.90;;;;;;;;;;5007968;28;20056;-74
2021/09/07 09:02:28;;;;;;;1244.72;999.90;;;;;;;;;;5008947;28;20667;-75
2021/09/07 09:04:55;;;;;;;1245.22;999.90;;;;;;;;;;5021755;28;20025;-73
2021/09/07 09:07:26;;;;;;;1237.45;999.90;;;;;;;;;;5019638;28;20244;-73
2021/09/07 09:09:52;;;;;;;1244.07;999.90;;;;;;;;;;5008409;28;20040;-74
2021/09/07 09:12:29;;;;;;;1245.05;999.90;;;;;;;;;;5017823;28;20041;-71
2021/09/07 09:14:57;;;;;;;1241.68;999.90;;;;;;;;;;5020594;28;20061;-73
2021/09/07 09:17:25;;;;;;;1251.72;999.90;;;;;;;;;;5016333;28;20429;-73
2021/09/07 09:20:07;;;;;;;1246.80;999.90;;;;;;;;;;5008587;28;20064;-74
2021/09/07 09:22:42;;;;;;;1235.28;999.90;;;;;;;;;;5024933;28;20138;-74
2021/09/07 09:25:33;;;;;;;1248.68;999.90;;;;;;;;;;5015485;28;20028;-75
2021/09/07 09:27:59;;;;;;;1240.00;999.90;;;;;;;;;;5027406;28;20560;-73
2021/09/07 09:30:25;;;;;;;1243.95;999.90;;;;;;;;;;5011035;28;20040;-75
2021/09/07 09:32:51;;;;;;;1249.30;999.90;;;;;;;;;;5013244;28;20017;-75
2021/09/07 09:35:18;;;;;;;1255.53;999.90;;;;;;;;;;5028186;28;20060;-73
2021/09/07 09:38:06;;;;;;;1251.68;999.90;;;;;;;;;;5011553;28;20060;-73
2021/09/07 09:40:33;;;;;;;1245.43;999.90;;;;;;;;;;5027733;28;20071;-73
2021/09/07 09:42:59;;;;;;;1259.93;999.90;;;;;;;;;;5025280;28;20045;-72
2021/09/07 09:45:29;;;;;;;1266.47;999.90;;;;;;;;;;5026379;28;20048;-73
2021/09/07 09:47:56;;;;;;;1261.68;999.90;;;;;;;;;;5020881;28;20029;-74
2021/09/07 09:50:22;;;;;;;1272.85;999.90;;;;;;;;;;5017779;28;20776;-76
2021/09/07 09:52:49;;;;;;;1282.53;999.90;;;;;;;;;;5024978;28;20100;-75
2021/09/07 09:55:16;;;;;;;1288.90;999.90;;;;;;;;;;5020289;28;20124;-76
2021/09/07 09:57:42;;;;;;;1306.03;999.90;;;;;;;;;;5013148;28;20105;-75
2021/09/07 10:00:10;;;;;;;1316.03;999.90;;;;;;;;;;5013508;28;20351;-76
2021/09/07 10:02:36;;;;;;;1323.10;999.90;;;;;;;;;;5022621;28;20029;-75
2021/09/07 10:05:02;;;;;;;1331.78;999.90;;;;;;;;;;5020415;28;20022;-74
2021/09/07 10:07:29;;;;;;;1338.65;999.90;;;;;;;;;;5007179;28;20336;-75
2021/09/07 10:09:56;;;;;;;1342.20;999.90;;;;;;;;;;5025983;28;20120;-75
2021/09/07 10:12:41;;;;;;;1347.70;999.90;;;;;;;;;;5019908;28;20060;-74
2021/09/07 10:15:25;;;;;;;1349.60;999.90;;;;;;;;;;5022625;28;20379;-74
2021/09/07 10:18:17;;;;;;;1349.63;999.90;;;;;;;;;;5019110;28;20455;-75
2021/09/07 10:20:55;;;;;;;1353.95;999.90;;;;;;;;;;5004948;28;20029;-75
2021/09/07 10:23:39;;;;;;;1363.75;999.90;;;;;;;;;;5019154;28;20030;-75
2021/09/07 10:26:06;;;;;;;1377.35;999.90;;;;;;;;;;4994185;28;20061;-75
2021/09/07 10:28:41;;;;;;;1377.97;999.90;;;;;;;;;;5011702;28;20033;-76
2021/09/07 10:31:10;;;;;;;1376.55;999.90;;;;;;;;;;5020700;28;20033;-75
2021/09/07 10:33:46;;;;;;;1372.75;999.90;;;;;;;;;;5028979;28;20091;-75
2021/09/07 10:36:19;;;;;;;1372.97;999.90;;;;;;;;;;5010007;28;20091;-75
2021/09/07 10:38:53;;;;;;;1363.70;999.90;;;;;;;;;;5017809;28;20588;-74
2021/09/07 10:41:35;;;;;;;1358.22;999.90;;;;;;;;;;5022187;28;20079;-75
2021/09/07 10:44:07;;;;;;;1345.13;999.90;;;;;;;;;;5016979;28;20154;-75
2021/09/07 10:46:45;;;;;;;1327.35;999.90;;;;;;;;;;5022029;28;20034;-75
2021/09/07 10:49:15;;;;;;;1339.53;999.90;;;;;;;;;;5024173;28;20217;-74
2021/09/07 10:52:00;;;;;;;1335.97;999.90;;;;;;;;;;5001063;28;20385;-74
2021/09/07 10:54:26;;;;;;;1343.13;999.90;;;;;;;;;;5013382;28;20280;-74
2021/09/07 10:56:58;;;;;;;1346.63;999.90;;;;;;;;;;5017652;28;20025;-72
2021/09/07 10:59:43;;;;;;;1347.82;999.90;;;;;;;;;;5004251;28;20079;-75
2021/09/07 11:02:28;;;;;;;1354.22;999.90;;;;;;;;;;5028480;28;20030;-76
2021/09/07 11:04:54;;;;;;;1352.47;999.90;;;;;;;;;;5008139;28;20025;-73
2021/09/07 11:07:37;;;;;;;1348.90;999.90;;;;;;;;;;5009212;28;20048;-74
2021/09/07 11:10:03;;;;;;;1350.53;999.90;;;;;;;;;;5008832;28;20116;-74
2021/09/07 11:12:34;;;;;;;1355.43;999.90;;;;;;;;;;5007992;28;20461;-74
2021/09/07 11:15:02;;;;;;;1347.65;999.90;;;;;;;;;;5025931;28;20021;-75
2021/09/07 11:17:28;;;;;;;1352.40;999.90;;;;;;;;;;5026469;28;21724;-75
2021/09/07 11:19:57;;;;;;;1344.35;999.90;;;;;;;;;;5006955;28;20025;-75
2021/09/07 11:22:30;;;;;;;1342.22;999.90;;;;;;;;;;5009331;28;20985;-75
2021/09/07 11:25:10;;;;;;;1343.22;999.90;;;;;;;;;;5003475;28;20041;-71
2021/09/07 11:28:05;;;;;;;1326.78;999.90;;;;;;;;;;5004530;28;20029;-72
2021/09/07 11:30:31;;;;;;;1331.50;999.90;;;;;;;;;;5009333;28;20493;-75
2021/09/07 11:33:02;;;;;;;1335.55;999.90;;;;;;;;;;5005520;28;20029;-76
2021/09/07 11:35:29;;;;;;;1330.03;999.90;;;;;;;;;;5017684;28;20025;-76
2021/09/07 11:37:56;;;;;;;1327.80;999.90;;;;;;;;;;5025098;28;20032;-75
2021/09/07 11:40:22;;;;;;;1337.82;999.90;;;;;;;;;;5003951;28;20080;-74
2021/09/07 11:42:49;;;;;;;1338.10;999.90;;;;;;;;;;5009309;28;20049;-75
2021/09/07 11:45:28;;;;;;;1357.50;999.90;;;;;;;;;;5007610;28;20512;-76
2021/09/07 11:47:55;;;;;;;1363.80;999.90;;;;;;;;;;5025841;28;20419;-75
2021/09/07 11:50:22;;;;;;;1378.88;999.90;;;;;;;;;;5005965;28;20119;-75
2021/09/07 11:52:52;;;;;;;1393.30;999.90;;;;;;;;;;5006061;28;20029;-74
2021/09/07 11:55:38;;;;;;;1404.70;999.90;;;;;;;;;;5023054;28;20017;-75
2021/09/07 11:58:04;;;;;;;1410.45;999.90;;;;;;;;;;4998807;28;20044;-75
2021/09/07 12:00:30;;;;;;;1419.78;999.90;;;;;;;;;;5019545;28;20385;-75
2021/09/07 12:03:09;;;;;;;1432.70;999.90;;;;;;;;;;5004941;28;20033;-74
2021/09/07 12:05:56;;;;;;;1459.73;999.90;;;;;;;;;;5020423;28;20029;-75
2021/09/07 12:08:32;;;;;;;1457.45;999.90;;;;;;;;;;5022340;28;20301;-75
2021/09/07 12:10:58;;;;;;;1463.15;999.90;;;;;;;;;;5005810;28;20036;-75
2021/09/07 12:13:24;;;;;;;1460.13;999.90;;;;;;;;;;5023278;28;20029;-75
2021/09/07 12:15:51;;;;;;;1480.60;999.90;;;;;;;;;;5001321;28;20053;-75
2021/09/07 12:18:30;;;;;;;1486.80;999.90;;;;;;;;;;5026682;28;20296;-74
2021/09/07 12:21:10;;;;;;;1495.68;999.90;;;;;;;;;;5008383;28;20025;-74
2021/09/07 12:23:37;;;;;;;1498.60;999.90;;;;;;;;;;4999395;28;20612;-75
2021/09/07 12:26:03;;;;;;;1484.05;999.90;;;;;;;;;;5019530;28;20037;-75
2021/09/07 12:28:31;;;;;;;1479.72;999.90;;;;;;;;;;5019612;28;20036;-77
2021/09/07 12:31:14;;;;;;;1476.38;999.90;;;;;;;;;;5022701;28;20981;-74
2021/09/07 12:33:42;;;;;;;1472.30;999.90;;;;;;;;;;5001110;28;20083;-74
2021/09/07 12:36:09;;;;;;;1469.00;999.90;;;;;;;;;;5020429;28;20025;-74
2021/09/07 12:38:36;;;;;;;1466.22;999.90;;;;;;;;;;5019480;28;20039;-76
2021/09/07 12:41:07;;;;;;;1455.93;999.90;;;;;;;;;;5005471;28;20025;-75
2021/09/07 12:43:35;;;;;;;1451.85;999.90;;;;;;;;;;5003506;28;20054;-75
2021/09/07 12:46:05;;;;;;;1440.53;999.90;;;;;;;;;;5023429;28;20049;-74
2021/09/07 12:48:32;;;;;;;1440.75;999.90;;;;;;;;;;5021060;28;20037;-75
2021/09/07 12:50:59;;;;;;;1433.95;999.90;;;;;;;;;;5000762;28;20047;-76
2021/09/07 12:53:27;;;;;;;1427.55;999.90;;;;;;;;;;5002753;28;20033;-76
2021/09/07 12:55:54;;;;;;;1422.13;999.90;;;;;;;;;;5004037;28;20034;-75
2021/09/07 12:58:20;;;;;;;1409.03;999.90;;;;;;;;;;5017331;28;20029;-76
2021/09/07 13:00:47;;;;;;;1412.43;999.90;;;;;;;;;;5004096;28;20456;-75
2021/09/07 13:03:13;;;;;;;1400.13;999.90;;;;;;;;;;5022053;28;20017;-74
2021/09/07 13:05:43;;;;;;;1403.18;999.90;;;;;;;;;;5005531;28;20086;-74
2021/09/07 13:08:13;;;;;;;1402.07;999.90;;;;;;;;;;5007965;28;20037;-75
2021/09/07 13:10:39;;;;;;;1398.40;999.90;;;;;;;;;;5026323;28;20146;-74
2021/09/07 13:13:05;;;;;;;1393.25;999.90;;;;;;;;;;5011269;28;20034;-77
2021/09/07 13:15:31;;;;;;;1392.53;999.90;;;;;;;;;;5017277;28;20094;-75
2021/09/07 13:17:57;;;;;;;1378.43;999.90;;;;;;;;;;5017213;28;20107;-74
2021/09/07 13:20:23;;;;;;;1377.15;999.90;;;;;;;;;;5018883;28;20389;-75
2021/09/07 13:22:49;;;;;;;1374.65;999.90;;;;;;;;;;5010263;28;20040;-75
2021/09/07 13:25:15;;;;;;;1366.85;999.90;;;;;;;;;;5011375;28;20029;-74
2021/09/07 13:27:41;;;;;;;1363.47;999.90;;;;;;;;;;5023965;28;20033;-74
2021/09/07 13:30:08;;;;;;;1365.50;999.90;;;;;;;;;;5024465;28;20364;-74
2021/09/07 13:32:34;;;;;;;1357.45;999.90;;;;;;;;;;5017791;28;20025;-74
2021/09/07 13:35:00;;;;;;;1361.82;999.90;;;;;;;;;;5017613;28;20029;-74
2021/09/07 13:37:26;;;;;;;1357.72;999.90;;;;;;;;;;5024703;28;20323;-74
2021/09/07 13:39:52;;;;;;;1355.97;999.90;;;;;;;;;;5011225;28;20382;-74
2021/09/07 13:42:21;;;;;;;1349.00;999.90;;;;;;;;;;5010753;28;20080;-75
2021/09/07 13:44:47;;;;;;;1346.97;999.90;;;;;;;;;;5008403;28;20056;-75
2021/09/07 13:47:13;;;;;;;1347.72;999.90;;;;;;;;;;5019266;28;20029;-76